createdAt,value
2022-08-02T00:00:57.111Z,100.00
2022-08-02T00:03:27.495Z,100.00
2022-08-02T00:05:54.673Z,100.00
2022-08-02T00:08:22.365Z,100.00
2022-08-02T00:10:50.119Z,100.00
2022-08-02T00:13:17.239Z,100.00
2022-08-02T00:15:44.195Z,100.00
2022-08-02T00:18:11.480Z,100.00
2022-08-02T00:20:38.521Z,100.00
2022-08-02T00:23:05.649Z,100.00
2022-08-02T00:25:32.878Z,100.00
2022-08-02T00:28:00.138Z,100.00
2022-08-02T00:30:32.040Z,100.00
2022-08-02T00:32:59.694Z,100.00
2022-08-02T00:35:29.023Z,100.00
2022-08-02T00:37:56.060Z,100.00
2022-08-02T00:40:24.441Z,100.00
2022-08-02T00:43:07.932Z,100.00
2022-08-02T00:46:02.837Z,100.00
2022-08-02T00:48:25.744Z,100.00
2022-08-02T00:50:52.985Z,100.00
2022-08-02T00:53:20.141Z,100.00
2022-08-02T00:55:49.391Z,100.00
2022-08-02T00:58:17.091Z,100.00
2022-08-02T01:00:44.320Z,100.00
2022-08-02T01:03:11.392Z,100.00
2022-08-02T01:06:10.250Z,100.00
2022-08-02T01:08:29.465Z,100.00
2022-08-02T01:10:59.175Z,100.00
2022-08-02T01:13:27.675Z,100.00
2022-08-02T01:16:08.595Z,100.00
2022-08-02T01:18:43.344Z,100.00
2022-08-02T01:21:32.850Z,100.00
2022-08-02T01:24:07.417Z,100.00
2022-08-02T01:26:52.668Z,100.00
2022-08-02T01:29:45.470Z,100.00
2022-08-02T01:32:22.157Z,100.00
2022-08-02T01:34:58.812Z,100.00
2022-08-02T01:37:35.345Z,100.00
2022-08-02T01:40:10.040Z,100.00
2022-08-02T01:42:42.272Z,100.00
2022-08-02T01:45:12.644Z,100.00
2022-08-02T01:47:41.421Z,100.00
2022-08-02T01:50:14.200Z,100.00
2022-08-02T01:52:53.218Z,100.00
2022-08-02T01:55:28.220Z,100.00
2022-08-02T01:58:05.295Z,100.00
2022-08-02T02:00:36.763Z,100.00
2022-08-02T02:03:07.077Z,100.00
2022-08-02T02:05:36.951Z,100.00
2022-08-02T02:08:05.909Z,100.00
2022-08-02T02:10:35.757Z,100.00
2022-08-02T02:13:10.177Z,100.00
2022-08-02T02:15:42.023Z,100.00
2022-08-02T02:18:13.901Z,100.00
2022-08-02T02:20:42.654Z,100.00
2022-08-02T02:23:11.170Z,100.00
2022-08-02T02:25:46.612Z,100.00
2022-08-02T02:28:30.486Z,100.00
2022-08-02T02:31:05.152Z,100.00
2022-08-02T02:33:35.723Z,100.00
2022-08-02T02:36:03.511Z,100.00
2022-08-02T02:38:33.157Z,100.00
2022-08-02T02:41:03.393Z,100.00
2022-08-02T02:43:33.013Z,100.00
2022-08-02T02:46:07.625Z,100.00
2022-08-02T02:48:36.245Z,100.00
2022-08-02T02:51:08.154Z,100.00
2022-08-02T02:54:32.617Z,100.00
2022-08-02T02:56:32.975Z,100.00
2022-08-02T02:59:00.902Z,100.00
2022-08-02T03:01:55.523Z,100.00
2022-08-02T03:04:20.603Z,100.00
2022-08-02T03:06:47.984Z,100.00
2022-08-02T03:09:14.964Z,100.00
2022-08-02T03:11:42.571Z,100.00
2022-08-02T03:14:12.264Z,100.00
2022-08-02T03:16:47.012Z,100.00
2022-08-02T03:19:14.939Z,100.00
2022-08-02T03:21:43.840Z,100.00
2022-08-02T03:24:11.174Z,100.00
2022-08-02T03:26:39.271Z,100.00
2022-08-02T03:29:10.097Z,100.00
2022-08-02T03:31:41.947Z,100.00
2022-08-02T03:34:12.778Z,100.00
2022-08-02T03:36:41.937Z,100.00
2022-08-02T03:39:11.172Z,100.00
2022-08-02T03:41:39.982Z,100.00
2022-08-02T03:44:08.549Z,100.00
2022-08-02T03:46:39.509Z,100.00
2022-08-02T03:49:11.212Z,100.00
2022-08-02T03:51:39.611Z,100.00
2022-08-02T03:54:06.945Z,100.00
2022-08-02T03:56:34.686Z,100.00
2022-08-02T03:59:13.651Z,100.00
2022-08-02T04:01:42.291Z,100.00
2022-08-02T04:04:12.500Z,100.00
2022-08-02T04:06:40.218Z,100.00
2022-08-02T04:09:10.413Z,100.00
2022-08-02T04:11:38.034Z,100.00
2022-08-02T04:14:11.156Z,100.00
2022-08-02T04:16:50.440Z,100.00
2022-08-02T04:19:25.845Z,100.00
2022-08-02T04:21:54.884Z,100.00
2022-08-02T04:24:26.840Z,100.00
2022-08-02T04:26:57.984Z,100.00
2022-08-02T04:29:33.438Z,100.00
2022-08-02T04:32:01.993Z,100.00
2022-08-02T04:34:30.136Z,100.00
2022-08-02T04:37:00.657Z,100.00
2022-08-02T04:39:28.542Z,100.00
2022-08-02T04:41:58.276Z,100.00
2022-08-02T04:44:25.583Z,100.00
2022-08-02T04:46:56.128Z,100.00
2022-08-02T04:49:23.219Z,100.00
2022-08-02T04:51:51.113Z,100.00
2022-08-02T04:54:18.759Z,100.00
2022-08-02T04:56:45.667Z,100.00
2022-08-02T04:59:15.176Z,100.00
2022-08-02T05:01:43.096Z,100.00
2022-08-02T05:04:10.816Z,100.00
2022-08-02T05:06:38.204Z,100.00
2022-08-02T05:09:05.802Z,100.00
2022-08-02T05:11:36.730Z,100.00
2022-08-02T05:14:05.749Z,100.00
2022-08-02T05:16:36.236Z,100.00
2022-08-02T05:19:03.762Z,100.00
2022-08-02T05:21:31.967Z,100.00
2022-08-02T05:24:01.984Z,100.00
2022-08-02T05:26:31.484Z,100.00
2022-08-02T05:28:58.637Z,100.00
2022-08-02T05:31:25.845Z,100.00
2022-08-02T05:33:52.949Z,100.00
2022-08-02T05:36:21.386Z,100.00
2022-08-02T05:38:53.242Z,100.00
2022-08-02T05:41:32.662Z,100.00
2022-08-02T05:44:00.109Z,100.00
2022-08-02T05:46:27.819Z,100.00
2022-08-02T05:48:54.981Z,100.00
2022-08-02T05:51:45.997Z,100.00
2022-08-02T05:54:23.617Z,100.00
2022-08-02T05:57:06.234Z,100.00
2022-08-02T05:59:55.875Z,100.00
2022-08-02T06:02:30.717Z,100.00
2022-08-02T06:05:19.075Z,100.00
2022-08-02T06:07:48.427Z,100.00
2022-08-02T06:10:19.517Z,100.00
2022-08-02T06:12:49.862Z,100.00
2022-08-02T06:15:19.573Z,100.00
2022-08-02T06:17:50.592Z,100.00
2022-08-02T06:20:18.279Z,100.00
2022-08-02T06:22:46.762Z,100.00
2022-08-02T06:25:50.615Z,100.00
2022-08-02T06:28:04.668Z,100.00
2022-08-02T06:30:39.112Z,100.00
2022-08-02T06:33:06.326Z,100.00
2022-08-02T06:35:48.649Z,100.00
2022-08-02T06:38:21.996Z,100.00
2022-08-02T06:40:57.226Z,100.00
2022-08-02T06:43:30.773Z,100.00
2022-08-02T06:46:57.445Z,100.00
2022-08-02T06:48:48.324Z,100.00
2022-08-02T06:51:15.540Z,100.00
2022-08-02T06:53:43.088Z,100.00
2022-08-02T06:56:11.081Z,100.00
2022-08-02T06:58:40.175Z,100.00
2022-08-02T07:01:07.963Z,100.00
2022-08-02T07:03:37.093Z,100.00
2022-08-02T07:06:06.213Z,100.00
2022-08-02T07:08:33.290Z,100.00
2022-08-02T07:11:04.201Z,100.00
2022-08-02T07:13:35.621Z,100.00
2022-08-02T07:16:08.385Z,100.00
2022-08-02T07:18:35.997Z,100.00
2022-08-02T07:21:06.229Z,100.00
2022-08-02T07:23:38.497Z,100.00
2022-08-02T07:26:06.031Z,100.00
2022-08-02T07:28:33.044Z,100.00
2022-08-02T07:31:00.209Z,100.00
2022-08-02T07:33:39.063Z,100.00
2022-08-02T07:36:09.930Z,100.00
2022-08-02T07:38:43.980Z,100.00
2022-08-02T07:41:12.903Z,100.00
2022-08-02T07:43:39.955Z,97.22
2022-08-02T07:46:09.550Z,95.79
2022-08-02T07:48:37.225Z,97.11
2022-08-02T07:51:08.936Z,97.05
2022-08-02T07:53:51.141Z,92.83
2022-08-02T07:56:23.564Z,73.85
2022-08-02T07:58:55.405Z,70.05
2022-08-02T08:01:22.568Z,67.36
2022-08-02T08:03:50.832Z,62.62
2022-08-02T08:06:18.123Z,58.49
2022-08-02T08:08:47.636Z,54.58
2022-08-02T08:11:17.454Z,53.09
2022-08-02T08:13:44.751Z,51.67
2022-08-02T08:16:14.201Z,49.78
2022-08-02T08:18:44.943Z,53.92
2022-08-02T08:21:12.098Z,57.01
2022-08-02T08:23:39.200Z,58.82
2022-08-02T08:26:06.571Z,58.34
2022-08-02T08:28:41.125Z,56.23
2022-08-02T08:31:10.778Z,53.79
2022-08-02T08:33:38.185Z,55.53
2022-08-02T08:36:05.794Z,58.89
2022-08-02T08:38:33.094Z,62.95
2022-08-02T08:41:00.595Z,60.02
2022-08-02T08:43:27.824Z,61.33
2022-08-02T08:45:56.496Z,63.60
2022-08-02T08:48:30.546Z,61.71
2022-08-02T08:51:16.476Z,57.68
2022-08-02T08:53:47.079Z,58.32
2022-08-02T08:56:17.025Z,53.28
2022-08-02T08:58:47.901Z,50.91
2022-08-02T09:01:21.935Z,50.27
2022-08-02T09:03:50.047Z,48.85
2022-08-02T09:06:17.692Z,48.20
2022-08-02T09:08:47.629Z,47.38
2022-08-02T09:11:16.884Z,46.12
2022-08-02T09:13:52.640Z,45.66
2022-08-02T09:16:41.655Z,46.78
2022-08-02T09:19:24.913Z,46.75
2022-08-02T09:22:01.427Z,48.13
2022-08-02T09:24:31.695Z,48.17
2022-08-02T09:26:59.000Z,46.24
2022-08-02T09:29:26.662Z,46.37
2022-08-02T09:32:03.617Z,44.89
2022-08-02T09:34:52.538Z,45.73
2022-08-02T09:37:27.902Z,44.30
2022-08-02T09:39:59.592Z,46.61
2022-08-02T09:42:31.304Z,45.66
2022-08-02T09:45:00.511Z,46.59
2022-08-02T09:47:29.097Z,46.37
2022-08-02T09:49:59.395Z,45.97
2022-08-02T09:52:43.374Z,47.17
2022-08-02T09:55:12.807Z,45.61
2022-08-02T09:57:40.321Z,43.66
2022-08-02T10:00:23.310Z,43.53
2022-08-02T10:03:34.813Z,44.11
2022-08-02T10:06:03.573Z,43.28
2022-08-02T10:08:33.689Z,43.14
2022-08-02T10:11:02.709Z,43.45
2022-08-02T10:13:35.053Z,43.26
2022-08-02T10:16:04.596Z,42.97
2022-08-02T10:18:40.817Z,43.47
2022-08-02T10:21:15.483Z,43.92
2022-08-02T10:23:45.308Z,43.06
2022-08-02T10:26:20.946Z,43.19
2022-08-02T10:28:50.343Z,42.44
2022-08-02T10:31:25.600Z,41.89
2022-08-02T10:33:58.349Z,41.80
2022-08-02T10:36:27.424Z,43.23
2022-08-02T10:38:58.917Z,42.75
2022-08-02T10:41:48.251Z,42.72
2022-08-02T10:44:33.253Z,45.90
2022-08-02T10:47:19.965Z,44.38
2022-08-02T10:49:50.772Z,44.98
2022-08-02T10:52:20.240Z,42.24
2022-08-02T10:55:14.978Z,43.41
2022-08-02T10:58:26.189Z,44.21
2022-08-02T11:00:54.169Z,43.77
2022-08-02T11:03:40.492Z,43.39
2022-08-02T11:06:25.985Z,44.90
2022-08-02T11:09:31.788Z,42.29
2022-08-02T11:12:05.827Z,42.58
2022-08-02T11:14:36.305Z,43.09
2022-08-02T11:17:05.520Z,43.15
2022-08-02T11:19:34.963Z,42.09
2022-08-02T11:22:07.255Z,41.38
2022-08-02T11:24:36.744Z,42.42
2022-08-02T11:27:09.302Z,42.51
2022-08-02T11:29:40.529Z,41.70
2022-08-02T11:32:15.531Z,44.22
2022-08-02T11:34:43.259Z,43.16
2022-08-02T11:37:10.860Z,44.88
2022-08-02T11:39:40.411Z,43.76
2022-08-02T11:42:10.155Z,43.94
2022-08-02T11:44:42.242Z,44.10
2022-08-02T11:47:09.407Z,45.07
2022-08-02T11:49:37.527Z,44.21
2022-08-02T11:52:11.309Z,45.73
2022-08-02T11:54:43.325Z,48.08
2022-08-02T11:57:19.255Z,45.39
2022-08-02T11:59:51.916Z,46.49
2022-08-02T12:02:21.906Z,47.12
2022-08-02T12:04:58.434Z,45.72
2022-08-02T12:07:57.558Z,46.10
2022-08-02T12:10:25.449Z,46.27
2022-08-02T12:12:58.293Z,47.72
2022-08-02T12:15:38.162Z,47.76
2022-08-02T12:18:31.950Z,46.17
2022-08-02T12:20:59.912Z,48.43
2022-08-02T12:23:27.626Z,47.31
2022-08-02T12:26:07.539Z,48.85
2022-08-02T12:28:38.965Z,48.56
2022-08-02T12:31:08.526Z,48.07
2022-08-02T12:33:50.521Z,48.93
2022-08-02T12:36:28.009Z,48.86
2022-08-02T12:39:00.336Z,47.71
2022-08-02T12:41:31.670Z,47.63
2022-08-02T12:44:02.354Z,48.95
2022-08-02T12:46:31.526Z,46.64
2022-08-02T12:49:18.717Z,48.98
2022-08-02T12:51:56.763Z,48.44
2022-08-02T12:54:32.633Z,47.01
2022-08-02T12:57:14.031Z,48.40
2022-08-02T12:59:45.265Z,48.24
2022-08-02T13:02:13.413Z,48.10
2022-08-02T13:04:49.008Z,47.65
2022-08-02T13:07:18.815Z,48.19
2022-08-02T13:09:47.688Z,48.01
2022-08-02T13:12:14.810Z,46.91
2022-08-02T13:14:42.687Z,46.51
2022-08-02T13:17:11.419Z,47.80
2022-08-02T13:19:42.335Z,47.33
2022-08-02T13:22:11.853Z,46.39
2022-08-02T13:24:56.244Z,46.72
2022-08-02T13:27:25.482Z,47.74
2022-08-02T13:29:56.428Z,47.15
2022-08-02T13:32:24.432Z,47.60
2022-08-02T13:34:51.769Z,46.93
2022-08-02T13:37:21.136Z,47.79
2022-08-02T13:40:18.593Z,47.55
2022-08-02T13:42:37.895Z,47.79
2022-08-02T13:45:12.581Z,47.13
2022-08-02T13:48:04.371Z,47.38
2022-08-02T13:50:33.147Z,46.64
2022-08-02T13:53:03.191Z,47.13
2022-08-02T13:55:32.892Z,45.79
2022-08-02T13:58:00.330Z,46.10
2022-08-02T14:00:35.589Z,41.48
2022-08-02T14:03:08.095Z,42.04
2022-08-02T14:05:47.346Z,42.75
2022-08-02T14:08:20.045Z,41.90
2022-08-02T14:10:48.269Z,43.84
2022-08-02T14:13:15.939Z,45.45
2022-08-02T14:15:43.496Z,43.62
2022-08-02T14:18:11.030Z,45.11
2022-08-02T14:20:40.652Z,43.32
2022-08-02T14:23:10.007Z,44.76
2022-08-02T14:25:37.438Z,45.81
2022-08-02T14:28:09.396Z,46.26
2022-08-02T14:30:36.641Z,45.73
2022-08-02T14:33:07.279Z,45.64
2022-08-02T14:35:37.238Z,44.70
2022-08-02T14:38:05.002Z,46.91
2022-08-02T14:40:33.421Z,45.66
2022-08-02T14:43:04.700Z,45.15
2022-08-02T14:45:41.211Z,44.49
2022-08-02T14:48:12.160Z,44.51
2022-08-02T14:50:42.206Z,43.83
2022-08-02T14:53:16.256Z,44.21
2022-08-02T14:55:46.306Z,44.79
2022-08-02T14:58:13.783Z,44.29
2022-08-02T15:00:43.765Z,45.29
2022-08-02T15:03:12.136Z,44.49
2022-08-02T15:05:40.316Z,44.92
2022-08-02T15:08:08.086Z,44.00
2022-08-02T15:10:35.476Z,45.06
2022-08-02T15:13:05.880Z,45.04
2022-08-02T15:15:42.212Z,44.94
2022-08-02T15:18:16.556Z,44.93
2022-08-02T15:20:54.535Z,46.22
2022-08-02T15:23:34.798Z,44.75
2022-08-02T15:26:06.744Z,45.28
2022-08-02T15:28:35.027Z,45.21
2022-08-02T15:31:02.139Z,45.15
2022-08-02T15:33:29.775Z,45.65
2022-08-02T15:35:59.731Z,43.94
2022-08-02T15:38:26.923Z,44.73
2022-08-02T15:41:02.119Z,44.90
2022-08-02T15:43:29.513Z,47.41
2022-08-02T15:45:56.664Z,46.12
2022-08-02T15:48:23.910Z,46.96
2022-08-02T15:50:51.379Z,46.90
2022-08-02T15:53:18.660Z,47.20
2022-08-02T15:56:05.164Z,47.38
2022-08-02T15:58:44.462Z,47.98
2022-08-02T16:01:14.187Z,46.56
2022-08-02T16:03:41.534Z,47.11
2022-08-02T16:06:08.596Z,46.45
2022-08-02T16:08:35.726Z,47.27
2022-08-02T16:11:03.541Z,47.43
2022-08-02T16:13:53.520Z,46.83
2022-08-02T16:16:36.609Z,46.99
2022-08-02T16:19:45.907Z,47.42
2022-08-02T16:21:55.068Z,46.21
2022-08-02T16:24:23.153Z,47.52
2022-08-02T16:26:50.797Z,45.83
2022-08-02T16:29:20.054Z,46.49
2022-08-02T16:31:48.293Z,46.27
2022-08-02T16:34:16.901Z,45.91
2022-08-02T16:36:47.024Z,46.46
2022-08-02T16:39:15.088Z,46.42
2022-08-02T16:41:50.146Z,47.00
2022-08-02T16:44:27.694Z,47.10
2022-08-02T16:47:06.943Z,46.66
2022-08-02T16:50:05.451Z,47.56
2022-08-02T16:52:22.155Z,47.13
2022-08-02T16:54:50.206Z,46.84
2022-08-02T16:57:22.316Z,46.89
2022-08-02T16:59:57.692Z,47.17
2022-08-02T17:05:14.847Z,46.67
2022-08-02T17:08:08.501Z,46.89
2022-08-02T17:10:36.977Z,48.19
2022-08-02T17:16:16.704Z,48.46
2022-08-02T17:18:49.229Z,48.34
2022-08-02T17:21:18.202Z,47.39
2022-08-02T17:24:05.828Z,47.66
2022-08-02T17:26:33.188Z,48.90
2022-08-02T17:29:15.053Z,49.17
2022-08-02T17:32:04.686Z,49.34
2022-08-02T17:34:35.850Z,49.32
2022-08-02T17:37:05.553Z,50.20
2022-08-02T17:39:44.455Z,50.33
2022-08-02T17:42:24.870Z,50.87
2022-08-02T17:44:54.233Z,51.15
2022-08-02T17:47:22.831Z,51.50
2022-08-02T17:50:00.010Z,51.98
2022-08-02T17:52:50.105Z,53.00
2022-08-02T17:55:19.563Z,53.74
2022-08-02T17:57:57.714Z,53.16
2022-08-02T18:00:34.974Z,54.40
2022-08-02T18:03:05.559Z,55.08
2022-08-02T18:05:41.691Z,55.25
2022-08-02T18:08:23.814Z,55.92
2022-08-02T18:10:55.983Z,56.22
2022-08-02T18:13:23.615Z,57.08
2022-08-02T18:15:57.319Z,58.01
2022-08-02T18:18:30.288Z,58.28
2022-08-02T18:20:58.792Z,59.49
2022-08-02T18:23:44.134Z,60.76
2022-08-02T18:26:17.429Z,61.40
2022-08-02T18:28:50.968Z,62.87
2022-08-02T18:31:22.275Z,62.94
2022-08-02T18:33:58.597Z,63.97
2022-08-02T18:36:31.374Z,65.00
2022-08-02T18:39:07.774Z,65.78
2022-08-02T18:41:36.590Z,66.46
2022-08-02T18:44:05.518Z,67.22
2022-08-02T18:46:33.466Z,67.64
2022-08-02T18:49:06.696Z,68.67
2022-08-02T18:51:46.723Z,69.56
2022-08-02T18:54:15.079Z,70.38
2022-08-02T18:56:47.184Z,71.17
2022-08-02T18:59:15.447Z,72.22
2022-08-02T19:01:50.435Z,72.51
2022-08-02T19:04:26.777Z,73.66
2022-08-02T19:06:56.376Z,73.86
2022-08-02T19:09:23.973Z,74.43
2022-08-02T19:11:55.599Z,74.54
2022-08-02T19:14:27.894Z,74.62
2022-08-02T19:17:53.006Z,75.43
2022-08-02T19:19:51.277Z,75.92
2022-08-02T19:22:20.313Z,75.38
2022-08-02T19:25:01.221Z,76.21
2022-08-02T19:27:32.556Z,77.02
2022-08-02T19:30:07.809Z,78.13
2022-08-02T19:32:59.015Z,77.50
2022-08-02T19:35:34.485Z,77.82
2022-08-02T19:38:15.242Z,78.30
2022-08-02T19:40:43.034Z,78.26
2022-08-02T19:44:24.048Z,78.67
2022-08-02T19:45:58.692Z,79.48
2022-08-02T19:48:27.041Z,79.21
2022-08-02T19:51:00.714Z,80.29
2022-08-02T19:53:47.636Z,80.54
2022-08-02T19:56:24.959Z,81.53
2022-08-02T19:58:57.672Z,81.88
2022-08-02T20:01:33.228Z,79.52
2022-08-02T20:04:07.585Z,78.75
2022-08-02T20:06:45.945Z,79.52
2022-08-02T20:09:16.873Z,79.50
2022-08-02T20:11:54.552Z,80.26
2022-08-02T20:14:26.700Z,81.55
2022-08-02T20:16:57.313Z,82.35
2022-08-02T20:19:28.967Z,83.33
2022-08-02T20:21:59.944Z,85.09
2022-08-02T20:24:28.538Z,84.98
2022-08-02T20:26:59.447Z,85.49
2022-08-02T20:29:43.416Z,88.84
2022-08-02T20:32:21.814Z,90.28
2022-08-02T20:34:49.902Z,90.80
2022-08-02T20:37:59.088Z,91.85
2022-08-02T20:40:07.784Z,92.27
2022-08-02T20:42:35.183Z,93.50
2022-08-02T20:45:06.059Z,94.68
2022-08-02T20:47:39.098Z,95.23
2022-08-02T20:50:31.475Z,95.63
2022-08-02T20:53:01.959Z,98.37
2022-08-02T20:55:30.799Z,99.72
2022-08-02T20:58:04.596Z,99.45
2022-08-02T21:00:35.300Z,100.00
2022-08-02T21:03:04.485Z,100.00
2022-08-02T21:05:53.923Z,100.00
2022-08-02T21:08:21.605Z,100.00
2022-08-02T21:13:47.320Z,100.00
2022-08-02T21:16:23.673Z,100.00
2022-08-02T21:18:59.694Z,100.00
2022-08-02T21:21:27.937Z,100.00
2022-08-02T21:23:55.310Z,100.00
2022-08-02T21:26:28.599Z,100.00
2022-08-02T21:29:03.937Z,100.00
2022-08-02T21:31:36.029Z,100.00
2022-08-02T21:34:21.605Z,100.00
2022-08-02T21:36:49.268Z,100.00
2022-08-02T21:39:20.410Z,100.00
2022-08-02T21:41:48.374Z,100.00
2022-08-02T21:44:16.752Z,100.00
2022-08-02T21:46:50.270Z,98.10
2022-08-02T21:49:41.235Z,97.85
2022-08-02T21:52:11.261Z,97.46
2022-08-02T21:54:39.675Z,97.17
2022-08-02T21:57:11.221Z,97.08
2022-08-02T21:59:47.430Z,96.24
2022-08-02T22:02:16.715Z,95.94
2022-08-02T22:04:48.090Z,95.83
2022-08-02T22:07:23.641Z,96.06
2022-08-02T22:09:52.914Z,95.12
2022-08-02T22:12:21.922Z,95.90
2022-08-02T22:14:56.514Z,96.57
2022-08-02T22:17:52.575Z,97.25
2022-08-02T22:20:20.417Z,98.48
2022-08-02T22:22:52.603Z,98.37
2022-08-02T22:25:38.911Z,99.18
2022-08-02T22:28:37.775Z,99.73
2022-08-02T22:30:58.232Z,100.00
2022-08-02T22:34:01.026Z,100.00
2022-08-02T22:36:43.142Z,100.00
2022-08-02T22:39:19.378Z,100.00
2022-08-02T22:42:05.859Z,100.00
2022-08-02T22:44:35.359Z,100.00
2022-08-02T22:47:14.073Z,100.00
2022-08-02T22:49:52.890Z,100.00
2022-08-02T22:52:23.790Z,100.00
2022-08-02T22:54:51.172Z,100.00
2022-08-02T22:57:30.104Z,100.00
2022-08-02T22:58:36.282Z,47.80
2022-08-02T22:58:50.531Z,47.49
2022-08-02T22:59:01.946Z,100.00
2022-08-02T23:00:00.032Z,100.00
2022-08-02T23:02:28.226Z,100.00
2022-08-02T23:04:57.127Z,100.00
2022-08-02T23:07:24.292Z,100.00
2022-08-02T23:09:51.746Z,100.00
2022-08-02T23:12:21.861Z,100.00
2022-08-02T23:14:52.413Z,100.00
2022-08-02T23:17:38.513Z,100.00
2022-08-02T23:20:07.144Z,100.00
2022-08-02T23:22:34.349Z,100.00
2022-08-02T23:25:02.451Z,100.00
2022-08-02T23:27:31.070Z,100.00
2022-08-02T23:30:01.230Z,100.00
2022-08-02T23:32:28.541Z,100.00
2022-08-02T23:34:57.545Z,100.00
2022-08-02T23:37:25.347Z,100.00
2022-08-02T23:39:52.512Z,100.00
2022-08-02T23:42:19.937Z,100.00
2022-08-02T23:44:46.936Z,100.00
2022-08-02T23:47:17.298Z,100.00
2022-08-02T23:49:44.602Z,100.00
2022-08-02T23:52:14.162Z,100.00
2022-08-02T23:54:44.119Z,100.00
2022-08-02T23:57:21.096Z,100.00
2022-08-02T23:59:52.061Z,100.00
